sensor_id;sensor_type;location;lat;lon;timestamp;pressure;altitude;pressure_sealevel;temperature;humidity
67029;BME280;53934;52.142;11.738;2022-09-27T00:00:35;99015.63;;;13.73;70.34
67029;BME280;53934;52.142;11.738;2022-09-27T00:03:01;99018.78;;;13.86;69.57
67029;BME280;53934;52.142;11.738;2022-09-27T00:05:28;99011.88;;;13.56;69.59
67029;BME280;53934;52.142;11.738;2022-09-27T00:07:55;99001.47;;;13.84;69.74
67029;BME280;53934;52.142;11.738;2022-09-27T00:10:21;99009.53;;;13.53;70.58
67029;BME280;53934;52.142;11.738;2022-09-27T00:12:47;98998.47;;;13.59;70.65
67029;BME280;53934;52.142;11.738;2022-09-27T00:15:14;98999.28;;;13.50;71.41
67029;BME280;53934;52.142;11.738;2022-09-27T00:17:42;99000.13;;;13.51;70.41
67029;BME280;53934;52.142;11.738;2022-09-27T00:20:08;98986.53;;;13.65;71.00
67029;BME280;53934;52.142;11.738;2022-09-27T00:22:35;98982.66;;;13.21;72.09
67029;BME280;53934;52.142;11.738;2022-09-27T00:25:01;98980.44;;;13.45;71.57
67029;BME280;53934;52.142;11.738;2022-09-27T00:27:29;98987.50;;;13.35;71.87
67029;BME280;53934;52.142;11.738;2022-09-27T00:29:56;98982.63;;;12.92;72.66
67029;BME280;53934;52.142;11.738;2022-09-27T00:32:22;98976.41;;;13.03;72.53
67029;BME280;53934;52.142;11.738;2022-09-27T00:34:49;98974.19;;;13.08;72.58
67029;BME280;53934;52.142;11.738;2022-09-27T00:37:16;98972.69;;;13.25;72.55
67029;BME280;53934;52.142;11.738;2022-09-27T00:39:42;98964.88;;;12.94;74.14
67029;BME280;53934;52.142;11.738;2022-09-27T00:42:09;98971.59;;;13.37;73.17
67029;BME280;53934;52.142;11.738;2022-09-27T00:44:54;98960.75;;;13.49;72.85
67029;BME280;53934;52.142;11.738;2022-09-27T00:47:25;98955.91;;;13.35;73.50
67029;BME280;53934;52.142;11.738;2022-09-27T00:49:54;98946.91;;;13.38;73.83
67029;BME280;53934;52.142;11.738;2022-09-27T00:52:23;98945.94;;;13.48;73.93
67029;BME280;53934;52.142;11.738;2022-09-27T00:54:52;98947.63;;;13.21;74.31
67029;BME280;53934;52.142;11.738;2022-09-27T00:57:20;98949.44;;;13.30;74.10
67029;BME280;53934;52.142;11.738;2022-09-27T00:59:48;98943.47;;;13.18;73.77
67029;BME280;53934;52.142;11.738;2022-09-27T01:02:16;98931.94;;;13.38;74.78
67029;BME280;53934;52.142;11.738;2022-09-27T01:04:42;98918.94;;;12.89;75.88
67029;BME280;53934;52.142;11.738;2022-09-27T01:07:11;98934.69;;;12.69;78.11
67029;BME280;53934;52.142;11.738;2022-09-27T01:09:37;98915.28;;;12.51;79.17
67029;BME280;53934;52.142;11.738;2022-09-27T01:12:05;98921.41;;;12.71;77.88
67029;BME280;53934;52.142;11.738;2022-09-27T01:14:37;98918.06;;;12.79;78.41
67029;BME280;53934;52.142;11.738;2022-09-27T01:17:09;98919.19;;;12.95;77.66
67029;BME280;53934;52.142;11.738;2022-09-27T01:19:45;98919.31;;;12.94;78.14
67029;BME280;53934;52.142;11.738;2022-09-27T01:22:17;98917.66;;;12.83;78.79
67029;BME280;53934;52.142;11.738;2022-09-27T01:24:52;98916.97;;;12.91;78.61
67029;BME280;53934;52.142;11.738;2022-09-27T01:30:14;98915.03;;;12.74;80.14
67029;BME280;53934;52.142;11.738;2022-09-27T01:32:42;98920.03;;;12.96;79.27
67029;BME280;53934;52.142;11.738;2022-09-27T01:35:15;98911.69;;;12.62;80.99
67029;BME280;53934;52.142;11.738;2022-09-27T01:37:46;98914.56;;;12.40;81.86
67029;BME280;53934;52.142;11.738;2022-09-27T01:40:19;98907.56;;;12.79;81.05
67029;BME280;53934;52.142;11.738;2022-09-27T01:42:55;98891.59;;;12.42;82.25
67029;BME280;53934;52.142;11.738;2022-09-27T01:45:25;98901.44;;;12.49;82.15
67029;BME280;53934;52.142;11.738;2022-09-27T01:47:53;98896.47;;;12.65;82.57
67029;BME280;53934;52.142;11.738;2022-09-27T01:50:22;98890.22;;;12.57;82.55
67029;BME280;53934;52.142;11.738;2022-09-27T01:52:50;98888.75;;;12.74;81.37
67029;BME280;53934;52.142;11.738;2022-09-27T01:55:19;98888.75;;;12.83;81.49
67029;BME280;53934;52.142;11.738;2022-09-27T01:57:48;98887.34;;;12.60;81.87
67029;BME280;53934;52.142;11.738;2022-09-27T02:00:18;98885.69;;;12.59;81.74
67029;BME280;53934;52.142;11.738;2022-09-27T02:02:47;98886.78;;;12.47;83.07
67029;BME280;53934;52.142;11.738;2022-09-27T02:05:15;98873.50;;;12.58;83.15
67029;BME280;53934;52.142;11.738;2022-09-27T02:07:43;98870.19;;;12.75;82.62
67029;BME280;53934;52.142;11.738;2022-09-27T02:10:11;98876.84;;;12.69;82.30
67029;BME280;53934;52.142;11.738;2022-09-27T02:12:45;98868.94;;;13.18;79.85
67029;BME280;53934;52.142;11.738;2022-09-27T02:15:15;98868.94;;;12.89;80.92
67029;BME280;53934;52.142;11.738;2022-09-27T02:17:43;98876.84;;;12.69;81.91
67029;BME280;53934;52.142;11.738;2022-09-27T02:20:13;98866.31;;;12.98;81.50
67029;BME280;53934;52.142;11.738;2022-09-27T02:22:41;98864.09;;;13.13;80.41
67029;BME280;53934;52.142;11.738;2022-09-27T02:25:11;98855.22;;;13.04;80.58
67029;BME280;53934;52.142;11.738;2022-09-27T02:27:39;98860.09;;;12.80;81.70
67029;BME280;53934;52.142;11.738;2022-09-27T02:30:10;98862.03;;;12.78;82.17
67029;BME280;53934;52.142;11.738;2022-09-27T02:32:37;98856.91;;;12.77;82.18
67029;BME280;53934;52.142;11.738;2022-09-27T02:35:06;98850.13;;;12.93;82.07
67029;BME280;53934;52.142;11.738;2022-09-27T02:37:34;98849.28;;;12.93;81.98
67029;BME280;53934;52.142;11.738;2022-09-27T02:40:00;98850.97;;;12.75;83.41
67029;BME280;53934;52.142;11.738;2022-09-27T02:42:28;98847.91;;;12.89;82.22
67029;BME280;53934;52.142;11.738;2022-09-27T02:44:55;98840.84;;;12.80;83.40
67029;BME280;53934;52.142;11.738;2022-09-27T02:47:27;98853.03;;;12.52;83.95
67029;BME280;53934;52.142;11.738;2022-09-27T02:49:59;98844.59;;;12.96;82.17
67029;BME280;53934;52.142;11.738;2022-09-27T02:52:37;98838.06;;;13.00;82.31
67029;BME280;53934;52.142;11.738;2022-09-27T02:55:06;98829.78;;;12.66;84.10
67029;BME280;53934;52.142;11.738;2022-09-27T02:57:37;98838.34;;;12.49;84.80
67029;BME280;53934;52.142;11.738;2022-09-27T03:00:06;98829.22;;;12.92;83.49
67029;BME280;53934;52.142;11.738;2022-09-27T03:02:37;98830.44;;;13.26;81.25
67029;BME280;53934;52.142;11.738;2022-09-27T03:05:10;98831.91;;;13.38;81.18
67029;BME280;53934;52.142;11.738;2022-09-27T03:07:39;98827.81;;;13.07;82.20
67029;BME280;53934;52.142;11.738;2022-09-27T03:10:06;98827.94;;;13.05;82.28
67029;BME280;53934;52.142;11.738;2022-09-27T03:12:32;98824.22;;;13.18;82.29
67029;BME280;53934;52.142;11.738;2022-09-27T03:14:58;98821.59;;;12.89;83.49
67029;BME280;53934;52.142;11.738;2022-09-27T03:17:25;98820.63;;;12.99;83.29
67029;BME280;53934;52.142;11.738;2022-09-27T03:19:51;98819.03;;;13.35;80.90
67029;BME280;53934;52.142;11.738;2022-09-27T03:22:18;98811.31;;;13.61;80.20
67029;BME280;53934;52.142;11.738;2022-09-27T03:24:45;98816.75;;;12.84;82.84
67029;BME280;53934;52.142;11.738;2022-09-27T03:27:12;98808.84;;;13.03;83.12
67029;BME280;53934;52.142;11.738;2022-09-27T03:29:38;98813.41;;;13.21;82.24
67029;BME280;53934;52.142;11.738;2022-09-27T03:32:04;98807.59;;;12.98;82.81
67029;BME280;53934;52.142;11.738;2022-09-27T03:34:30;98810.13;;;12.80;83.55
67029;BME280;53934;52.142;11.738;2022-09-27T03:36:56;98797.78;;;13.19;81.92
67029;BME280;53934;52.142;11.738;2022-09-27T03:39:23;98801.63;;;13.25;81.21
67029;BME280;53934;52.142;11.738;2022-09-27T03:41:50;98797.06;;;13.07;81.49
67029;BME280;53934;52.142;11.738;2022-09-27T03:44:17;98797.44;;;13.32;81.26
67029;BME280;53934;52.142;11.738;2022-09-27T03:46:43;98794.19;;;13.47;79.85
67029;BME280;53934;52.142;11.738;2022-09-27T03:49:09;98797.19;;;13.25;81.56
67029;BME280;53934;52.142;11.738;2022-09-27T03:51:36;98795.94;;;13.29;81.05
67029;BME280;53934;52.142;11.738;2022-09-27T03:54:02;98792.00;;;12.77;83.03
67029;BME280;53934;52.142;11.738;2022-09-27T03:56:28;98784.91;;;12.97;82.81
67029;BME280;53934;52.142;11.738;2022-09-27T03:58:56;98782.38;;;13.24;80.88
67029;BME280;53934;52.142;11.738;2022-09-27T04:01:22;98788.69;;;13.41;80.70
67029;BME280;53934;52.142;11.738;2022-09-27T04:03:50;98796.25;;;13.07;82.38
67029;BME280;53934;52.142;11.738;2022-09-27T04:06:16;98795.59;;;12.86;83.55
67029;BME280;53934;52.142;11.738;2022-09-27T04:08:43;98792.25;;;12.93;83.33
67029;BME280;53934;52.142;11.738;2022-09-27T04:11:09;98787.16;;;12.73;84.26
67029;BME280;53934;52.142;11.738;2022-09-27T04:13:36;98787.00;;;12.36;86.18
67029;BME280;53934;52.142;11.738;2022-09-27T04:16:03;98778.84;;;12.39;86.23
67029;BME280;53934;52.142;11.738;2022-09-27T04:18:30;98795.03;;;12.34;85.96
67029;BME280;53934;52.142;11.738;2022-09-27T04:20:56;98789.09;;;12.23;87.22
67029;BME280;53934;52.142;11.738;2022-09-27T04:23:22;98795.75;;;12.36;86.29
67029;BME280;53934;52.142;11.738;2022-09-27T04:25:49;98781.88;;;12.34;86.51
67029;BME280;53934;52.142;11.738;2022-09-27T04:28:15;98784.13;;;12.29;86.82
67029;BME280;53934;52.142;11.738;2022-09-27T04:30:41;98779.41;;;12.33;86.80
67029;BME280;53934;52.142;11.738;2022-09-27T04:33:09;98781.09;;;12.34;87.04
67029;BME280;53934;52.142;11.738;2022-09-27T04:35:35;98786.72;;;12.19;87.63
67029;BME280;53934;52.142;11.738;2022-09-27T04:38:19;98790.47;;;12.17;88.83
67029;BME280;53934;52.142;11.738;2022-09-27T04:40:48;98782.59;;;12.27;87.04
67029;BME280;53934;52.142;11.738;2022-09-27T04:43:14;98777.88;;;12.49;86.70
67029;BME280;53934;52.142;11.738;2022-09-27T04:45:41;98778.88;;;12.48;86.08
67029;BME280;53934;52.142;11.738;2022-09-27T04:48:09;98784.81;;;12.12;88.13
67029;BME280;53934;52.142;11.738;2022-09-27T04:50:35;98784.78;;;12.31;87.31
67029;BME280;53934;52.142;11.738;2022-09-27T04:53:02;98779.53;;;12.12;88.58
67029;BME280;53934;52.142;11.738;2022-09-27T04:55:29;98777.34;;;12.36;86.85
67029;BME280;53934;52.142;11.738;2022-09-27T04:57:55;98787.16;;;12.73;85.59
67029;BME280;53934;52.142;11.738;2022-09-27T05:00:21;98787.13;;;12.92;85.02
67029;BME280;53934;52.142;11.738;2022-09-27T05:02:48;98788.56;;;12.67;84.88
67029;BME280;53934;52.142;11.738;2022-09-27T05:05:15;98779.41;;;12.61;85.87
67029;BME280;53934;52.142;11.738;2022-09-27T05:07:42;98784.66;;;12.42;86.23
67029;BME280;53934;52.142;11.738;2022-09-27T05:10:08;98789.50;;;12.76;85.86
67029;BME280;53934;52.142;11.738;2022-09-27T05:12:34;98783.56;;;12.54;85.32
67029;BME280;53934;52.142;11.738;2022-09-27T05:15:01;98781.34;;;12.69;85.14
67029;BME280;53934;52.142;11.738;2022-09-27T05:17:27;98773.41;;;12.98;84.14
67029;BME280;53934;52.142;11.738;2022-09-27T05:19:53;98780.06;;;12.83;84.15
67029;BME280;53934;52.142;11.738;2022-09-27T05:22:21;98778.56;;;12.80;84.92
67029;BME280;53934;52.142;11.738;2022-09-27T05:24:47;98780.75;;;12.75;84.86
67029;BME280;53934;52.142;11.738;2022-09-27T05:27:14;98784.78;;;12.89;83.67
67029;BME280;53934;52.142;11.738;2022-09-27T05:29:42;98787.81;;;12.84;84.14
67029;BME280;53934;52.142;11.738;2022-09-27T05:32:08;98788.94;;;12.53;85.23
67029;BME280;53934;52.142;11.738;2022-09-27T05:34:35;98790.34;;;12.66;84.56
67029;BME280;53934;52.142;11.738;2022-09-27T05:37:01;98792.13;;;12.56;85.15
67029;BME280;53934;52.142;11.738;2022-09-27T05:39:28;98784.81;;;12.69;84.89
67029;BME280;53934;52.142;11.738;2022-09-27T05:41:55;98786.34;;;12.62;84.73
67029;BME280;53934;52.142;11.738;2022-09-27T05:44:21;98783.53;;;12.83;83.68
67029;BME280;53934;52.142;11.738;2022-09-27T05:46:49;98786.69;;;13.06;82.85
67029;BME280;53934;52.142;11.738;2022-09-27T05:49:16;98786.78;;;13.33;81.17
67029;BME280;53934;52.142;11.738;2022-09-27T05:51:42;98780.28;;;13.08;82.60
67029;BME280;53934;52.142;11.738;2022-09-27T05:54:08;98778.94;;;13.14;82.41
67029;BME280;53934;52.142;11.738;2022-09-27T05:56:36;98771.53;;;13.37;81.28
67029;BME280;53934;52.142;11.738;2022-09-27T05:59:02;98775.84;;;13.28;81.87
67029;BME280;53934;52.142;11.738;2022-09-27T06:01:29;98782.81;;;13.10;82.02
67029;BME280;53934;52.142;11.738;2022-09-27T06:03:55;98780.38;;;13.36;81.22
67029;BME280;53934;52.142;11.738;2022-09-27T06:06:21;98783.78;;;12.99;83.22
67029;BME280;53934;52.142;11.738;2022-09-27T06:08:48;98785.31;;;12.83;83.75
67029;BME280;53934;52.142;11.738;2022-09-27T06:11:14;98791.44;;;12.64;84.47
67029;BME280;53934;52.142;11.738;2022-09-27T06:13:42;98797.66;;;12.92;83.69
67029;BME280;53934;52.142;11.738;2022-09-27T06:16:08;98789.63;;;12.93;84.54
67029;BME280;53934;52.142;11.738;2022-09-27T06:18:35;98787.88;;;13.31;82.91
67029;BME280;53934;52.142;11.738;2022-09-27T06:21:02;98788.25;;;12.89;84.07
67029;BME280;53934;52.142;11.738;2022-09-27T06:23:29;98789.88;;;13.19;83.32
67029;BME280;53934;52.142;11.738;2022-09-27T06:25:59;98796.34;;;13.25;82.32
67029;BME280;53934;52.142;11.738;2022-09-27T06:28:25;98801.91;;;13.22;82.70
67029;BME280;53934;52.142;11.738;2022-09-27T06:30:53;98807.31;;;13.20;83.27
67029;BME280;53934;52.142;11.738;2022-09-27T06:33:19;98801.91;;;13.58;81.90
67029;BME280;53934;52.142;11.738;2022-09-27T06:35:46;98804.84;;;13.19;82.89
67029;BME280;53934;52.142;11.738;2022-09-27T06:38:14;98803.94;;;13.37;82.71
67029;BME280;53934;52.142;11.738;2022-09-27T06:40:41;98808.25;;;13.65;80.93
67029;BME280;53934;52.142;11.738;2022-09-27T06:43:10;98810.00;;;14.02;79.56
67029;BME280;53934;52.142;11.738;2022-09-27T06:45:36;98810.13;;;14.10;79.68
67029;BME280;53934;52.142;11.738;2022-09-27T06:48:05;98805.69;;;14.28;78.70
67029;BME280;53934;52.142;11.738;2022-09-27T06:50:32;98809.34;;;14.45;78.40
67029;BME280;53934;52.142;11.738;2022-09-27T06:52:58;98812.84;;;14.18;79.09
67029;BME280;53934;52.142;11.738;2022-09-27T06:55:25;98811.97;;;14.00;79.86
67029;BME280;53934;52.142;11.738;2022-09-27T06:57:52;98807.78;;;13.52;82.42
67029;BME280;53934;52.142;11.738;2022-09-27T07:00:41;98804.72;;;13.47;82.05
67029;BME280;53934;52.142;11.738;2022-09-27T07:03:09;98810.84;;;13.48;82.77
67029;BME280;53934;52.142;11.738;2022-09-27T07:05:37;98805.91;;;13.90;81.02
67029;BME280;53934;52.142;11.738;2022-09-27T07:08:04;98811.25;;;13.80;81.25
67029;BME280;53934;52.142;11.738;2022-09-27T07:10:32;98813.16;;;13.88;80.67
67029;BME280;53934;52.142;11.738;2022-09-27T07:13:02;98813.91;;;13.98;80.91
67029;BME280;53934;52.142;11.738;2022-09-27T07:15:29;98810.41;;;13.80;81.60
67029;BME280;53934;52.142;11.738;2022-09-27T07:17:56;98817.91;;;13.38;83.21
67029;BME280;53934;52.142;11.738;2022-09-27T07:20:24;98807.19;;;13.22;84.28
67029;BME280;53934;52.142;11.738;2022-09-27T07:22:51;98811.44;;;13.32;84.27
67029;BME280;53934;52.142;11.738;2022-09-27T07:25:17;98819.94;;;13.63;82.68
67029;BME280;53934;52.142;11.738;2022-09-27T07:27:44;98818.81;;;13.93;82.76
67029;BME280;53934;52.142;11.738;2022-09-27T07:30:10;98823.38;;;14.18;80.98
67029;BME280;53934;52.142;11.738;2022-09-27T07:32:37;98816.75;;;14.32;81.51
67029;BME280;53934;52.142;11.738;2022-09-27T07:35:04;98823.28;;;14.37;81.48
67029;BME280;53934;52.142;11.738;2022-09-27T07:37:33;98816.97;;;14.66;80.38
67029;BME280;53934;52.142;11.738;2022-09-27T07:40:00;98821.47;;;14.73;79.02
67029;BME280;53934;52.142;11.738;2022-09-27T07:42:26;98826.31;;;14.78;79.02
67029;BME280;53934;52.142;11.738;2022-09-27T07:44:53;98829.72;;;14.25;80.29
67029;BME280;53934;52.142;11.738;2022-09-27T07:47:19;98835.03;;;14.43;78.81
67029;BME280;53934;52.142;11.738;2022-09-27T07:49:48;98831.72;;;14.13;80.59
67029;BME280;53934;52.142;11.738;2022-09-27T07:52:14;98826.06;;;14.08;79.22
67029;BME280;53934;52.142;11.738;2022-09-27T07:54:42;98828.22;;;14.23;79.64
67029;BME280;53934;52.142;11.738;2022-09-27T07:57:08;98836.31;;;14.56;77.09
67029;BME280;53934;52.142;11.738;2022-09-27T07:59:35;98836.94;;;14.50;77.17
67029;BME280;53934;52.142;11.738;2022-09-27T08:02:01;98833.94;;;14.63;76.62
67029;BME280;53934;52.142;11.738;2022-09-27T08:04:27;98847.31;;;14.87;76.38
67029;BME280;53934;52.142;11.738;2022-09-27T08:06:54;98853.50;;;14.78;75.73
67029;BME280;53934;52.142;11.738;2022-09-27T08:09:20;98862.63;;;14.48;77.60
67029;BME280;53934;52.142;11.738;2022-09-27T08:11:48;98861.00;;;14.38;78.35
67029;BME280;53934;52.142;11.738;2022-09-27T08:14:14;98857.56;;;14.10;78.72
67029;BME280;53934;52.142;11.738;2022-09-27T08:16:40;98866.13;;;13.85;79.36
67029;BME280;53934;52.142;11.738;2022-09-27T08:19:06;98862.88;;;13.63;80.42
67029;BME280;53934;52.142;11.738;2022-09-27T08:21:33;98874.81;;;13.95;80.42
67029;BME280;53934;52.142;11.738;2022-09-27T08:23:59;98869.97;;;13.90;80.74
67029;BME280;53934;52.142;11.738;2022-09-27T08:26:26;98881.28;;;14.10;80.47
67029;BME280;53934;52.142;11.738;2022-09-27T08:28:54;98875.22;;;14.00;80.20
67029;BME280;53934;52.142;11.738;2022-09-27T08:31:20;98885.81;;;14.45;78.87
67029;BME280;53934;52.142;11.738;2022-09-27T08:33:48;98889.03;;;14.39;79.82
67029;BME280;53934;52.142;11.738;2022-09-27T08:36:14;98885.28;;;14.41;77.76
67029;BME280;53934;52.142;11.738;2022-09-27T08:38:40;98887.47;;;14.46;78.81
67029;BME280;53934;52.142;11.738;2022-09-27T08:41:07;98893.88;;;14.34;78.88
67029;BME280;53934;52.142;11.738;2022-09-27T08:43:38;98891.41;;;14.32;79.52
67029;BME280;53934;52.142;11.738;2022-09-27T08:46:17;98896.53;;;14.43;78.13
67029;BME280;53934;52.142;11.738;2022-09-27T08:48:48;98893.88;;;14.43;77.82
67029;BME280;53934;52.142;11.738;2022-09-27T08:51:25;98900.84;;;14.35;77.53
67029;BME280;53934;52.142;11.738;2022-09-27T08:53:54;98904.19;;;14.37;79.45
67029;BME280;53934;52.142;11.738;2022-09-27T08:56:22;98913.72;;;14.10;78.57
67029;BME280;53934;52.142;11.738;2022-09-27T08:58:49;98922.91;;;14.06;80.44
67029;BME280;53934;52.142;11.738;2022-09-27T09:01:18;98915.47;;;14.20;79.35
67029;BME280;53934;52.142;11.738;2022-09-27T09:03:45;98926.19;;;14.45;77.74
67029;BME280;53934;52.142;11.738;2022-09-27T09:06:13;98925.72;;;14.59;76.77
67029;BME280;53934;52.142;11.738;2022-09-27T09:08:45;98931.13;;;14.58;77.90
67029;BME280;53934;52.142;11.738;2022-09-27T09:11:17;98927.34;;;14.60;78.05
67029;BME280;53934;52.142;11.738;2022-09-27T09:14:10;98925.97;;;14.84;77.95
67029;BME280;53934;52.142;11.738;2022-09-27T09:16:43;98935.63;;;15.10;76.43
67029;BME280;53934;52.142;11.738;2022-09-27T09:19:16;98935.22;;;15.05;77.44
67029;BME280;53934;52.142;11.738;2022-09-27T09:21:48;98939.22;;;14.74;79.08
67029;BME280;53934;52.142;11.738;2022-09-27T09:24:23;98935.03;;;15.42;78.17
67029;BME280;53934;52.142;11.738;2022-09-27T09:26:54;98936.16;;;15.14;78.00
67029;BME280;53934;52.142;11.738;2022-09-27T09:29:26;98949.69;;;15.19;79.49
67029;BME280;53934;52.142;11.738;2022-09-27T09:32:00;98938.78;;;14.96;78.06
67029;BME280;53934;52.142;11.738;2022-09-27T09:34:31;98956.22;;;15.07;77.09
67029;BME280;53934;52.142;11.738;2022-09-27T09:37:00;98950.63;;;15.10;77.45
67029;BME280;53934;52.142;11.738;2022-09-27T09:39:29;98943.50;;;15.46;78.19
67029;BME280;53934;52.142;11.738;2022-09-27T09:42:01;98945.47;;;15.87;75.79
67029;BME280;53934;52.142;11.738;2022-09-27T09:44:30;98949.72;;;15.54;75.82
67029;BME280;53934;52.142;11.738;2022-09-27T09:46:57;98953.78;;;15.49;75.71
67029;BME280;53934;52.142;11.738;2022-09-27T09:49:27;98949.66;;;15.11;77.58
67029;BME280;53934;52.142;11.738;2022-09-27T09:51:56;98951.28;;;14.94;77.06
67029;BME280;53934;52.142;11.738;2022-09-27T09:54:26;98952.22;;;14.85;78.54
67029;BME280;53934;52.142;11.738;2022-09-27T09:56:57;98953.81;;;14.69;77.47
67029;BME280;53934;52.142;11.738;2022-09-27T09:59:25;98955.28;;;14.81;78.12
67029;BME280;53934;52.142;11.738;2022-09-27T10:01:54;98959.34;;;14.93;79.10
67029;BME280;53934;52.142;11.738;2022-09-27T10:04:24;98960.53;;;14.63;77.09
67029;BME280;53934;52.142;11.738;2022-09-27T10:06:53;98964.47;;;14.49;77.59
67029;BME280;53934;52.142;11.738;2022-09-27T10:09:21;98962.66;;;14.59;78.60
67029;BME280;53934;52.142;11.738;2022-09-27T10:11:49;98958.06;;;14.79;77.55
67029;BME280;53934;52.142;11.738;2022-09-27T10:14:16;98954.44;;;14.63;76.29
67029;BME280;53934;52.142;11.738;2022-09-27T10:16:43;98955.94;;;14.83;77.06
67029;BME280;53934;52.142;11.738;2022-09-27T10:19:12;98964.25;;;14.70;76.78
67029;BME280;53934;52.142;11.738;2022-09-27T10:21:39;98965.91;;;14.44;77.93
67029;BME280;53934;52.142;11.738;2022-09-27T10:24:09;98967.13;;;14.49;77.74
67029;BME280;53934;52.142;11.738;2022-09-27T10:26:36;98970.69;;;14.58;79.74
67029;BME280;53934;52.142;11.738;2022-09-27T10:29:16;98967.66;;;14.98;78.54
67029;BME280;53934;52.142;11.738;2022-09-27T10:31:43;98967.56;;;14.90;78.07
67029;BME280;53934;52.142;11.738;2022-09-27T10:34:16;98970.28;;;14.80;77.89
67029;BME280;53934;52.142;11.738;2022-09-27T10:36:43;98968.03;;;15.03;77.20
67029;BME280;53934;52.142;11.738;2022-09-27T10:39:19;98976.41;;;14.81;76.70
67029;BME280;53934;52.142;11.738;2022-09-27T10:41:46;98979.28;;;14.60;77.71
67029;BME280;53934;52.142;11.738;2022-09-27T10:44:19;98978.25;;;14.34;77.19
67029;BME280;53934;52.142;11.738;2022-09-27T10:46:46;98981.16;;;14.03;79.42
67029;BME280;53934;52.142;11.738;2022-09-27T10:49:16;98985.78;;;13.92;79.71
67029;BME280;53934;52.142;11.738;2022-09-27T10:51:43;98987.00;;;13.97;80.52
67029;BME280;53934;52.142;11.738;2022-09-27T10:54:18;98985.13;;;13.71;80.59
67029;BME280;53934;52.142;11.738;2022-09-27T10:56:46;98980.28;;;13.66;81.73
67029;BME280;53934;52.142;11.738;2022-09-27T10:59:19;98983.03;;;13.64;81.50
67029;BME280;53934;52.142;11.738;2022-09-27T11:01:45;98994.97;;;13.69;81.57
67029;BME280;53934;52.142;11.738;2022-09-27T11:04:16;98993.97;;;13.89;82.54
67029;BME280;53934;52.142;11.738;2022-09-27T11:06:43;98987.53;;;14.01;81.25
67029;BME280;53934;52.142;11.738;2022-09-27T11:09:16;98988.50;;;14.09;81.79
67029;BME280;53934;52.142;11.738;2022-09-27T11:11:45;98991.88;;;13.92;81.41
67029;BME280;53934;52.142;11.738;2022-09-27T11:14:21;98998.00;;;14.67;82.41
67029;BME280;53934;52.142;11.738;2022-09-27T11:16:58;98997.94;;;14.49;78.22
67029;BME280;53934;52.142;11.738;2022-09-27T11:19:32;98994.28;;;14.59;80.14
67029;BME280;53934;52.142;11.738;2022-09-27T11:22:03;98995.06;;;15.15;81.03
67029;BME280;53934;52.142;11.738;2022-09-27T11:24:42;98999.06;;;15.36;77.39
67029;BME280;53934;52.142;11.738;2022-09-27T11:27:16;98997.00;;;15.13;76.89
67029;BME280;53934;52.142;11.738;2022-09-27T11:29:51;98992.78;;;15.37;75.63
67029;BME280;53934;52.142;11.738;2022-09-27T11:32:24;99004.66;;;15.51;74.41
67029;BME280;53934;52.142;11.738;2022-09-27T11:34:57;99007.28;;;14.71;74.95
67029;BME280;53934;52.142;11.738;2022-09-27T11:37:29;98997.22;;;14.10;75.93
67029;BME280;53934;52.142;11.738;2022-09-27T11:40:03;98999.25;;;13.89;76.82
67029;BME280;53934;52.142;11.738;2022-09-27T11:42:45;99001.50;;;14.57;77.91
67029;BME280;53934;52.142;11.738;2022-09-27T11:48:03;98998.81;;;15.65;75.62
67029;BME280;53934;52.142;11.738;2022-09-27T11:50:39;99000.00;;;15.88;71.66
67029;BME280;53934;52.142;11.738;2022-09-27T11:53:15;98999.16;;;15.88;70.57
67029;BME280;53934;52.142;11.738;2022-09-27T11:55:44;98995.44;;;15.98;70.68
67029;BME280;53934;52.142;11.738;2022-09-27T11:58:15;98998.53;;;15.94;69.13
67029;BME280;53934;52.142;11.738;2022-09-27T12:00:49;99004.00;;;15.04;70.27
67029;BME280;53934;52.142;11.738;2022-09-27T12:03:29;99000.66;;;14.67;71.38
67029;BME280;53934;52.142;11.738;2022-09-27T12:06:04;99007.28;;;14.71;72.50
67029;BME280;53934;52.142;11.738;2022-09-27T12:08:35;99003.94;;;14.41;72.50
67029;BME280;53934;52.142;11.738;2022-09-27T12:11:07;99004.22;;;14.48;73.19
67029;BME280;53934;52.142;11.738;2022-09-27T12:13:37;99010.50;;;14.65;71.58
67029;BME280;53934;52.142;11.738;2022-09-27T12:16:05;99005.22;;;14.92;72.51
67029;BME280;53934;52.142;11.738;2022-09-27T12:18:32;99007.91;;;15.63;68.84
67029;BME280;53934;52.142;11.738;2022-09-27T12:21:03;99002.78;;;15.87;69.05
67029;BME280;53934;52.142;11.738;2022-09-27T12:23:32;99006.97;;;15.97;69.80
67029;BME280;53934;52.142;11.738;2022-09-27T12:26:02;99018.75;;;15.77;67.14
67029;BME280;53934;52.142;11.738;2022-09-27T12:28:30;99005.09;;;15.90;67.09
67029;BME280;53934;52.142;11.738;2022-09-27T12:31:03;99009.78;;;15.96;65.59
67029;BME280;53934;52.142;11.738;2022-09-27T12:33:33;99010.09;;;16.52;67.15
67029;BME280;53934;52.142;11.738;2022-09-27T12:36:03;99008.81;;;16.98;63.95
67029;BME280;53934;52.142;11.738;2022-09-27T12:38:34;99011.59;;;16.97;63.41
67029;BME280;53934;52.142;11.738;2022-09-27T12:41:02;99018.97;;;16.69;63.72
67029;BME280;53934;52.142;11.738;2022-09-27T12:43:30;99014.41;;;16.87;60.91
67029;BME280;53934;52.142;11.738;2022-09-27T12:45:58;99016.34;;;16.43;61.81
67029;BME280;53934;52.142;11.738;2022-09-27T12:48:27;99014.59;;;16.26;61.37
67029;BME280;53934;52.142;11.738;2022-09-27T12:50:59;99017.72;;;16.22;61.72
67029;BME280;53934;52.142;11.738;2022-09-27T12:53:33;99021.94;;;16.06;60.73
67029;BME280;53934;52.142;11.738;2022-09-27T12:56:08;99027.78;;;15.92;60.68
67029;BME280;53934;52.142;11.738;2022-09-27T12:58:51;99025.94;;;15.49;60.69
67029;BME280;53934;52.142;11.738;2022-09-27T13:01:27;99030.31;;;15.58;61.48
67029;BME280;53934;52.142;11.738;2022-09-27T13:04:03;99025.28;;;15.38;61.54